Time;durP1;ratioP1;P1;durP2;ratioP2;P2;SDS_P1;SDS_P2;PMS_P1;PMS_P2;Temp;Humidity;BMP_temperature;BMP_pressure;BME280_temperature;BME280_humidity;BME280_pressure;Samples;Min_cycle;Max_cycle;Signal;HPM_P1;HPM_P2
2022/03/31 07:21:17;;;;;;;15.10;6.30;;;1.90;99.10;;;;;;5104399;27;20434;-46
2022/03/31 07:23:48;;;;;;;10.00;5.90;;;1.80;99.80;;;;;;5091086;28;20064;-47
2022/03/31 07:26:15;;;;;;;9.68;4.63;;;1.80;99.20;;;;;;5090126;28;20036;-44
2022/03/31 07:28:41;;;;;;;8.25;5.55;;;1.90;99.00;;;;;;5090169;28;20094;-46
2022/03/31 07:31:08;;;;;;;7.13;4.90;;;2.00;99.10;;;;;;5089993;28;20475;-45
2022/03/31 07:33:35;;;;;;;9.00;4.80;;;2.10;99.00;;;;;;5089924;28;20098;-52
2022/03/31 07:36:02;;;;;;;7.10;4.60;;;2.20;98.60;;;;;;5090052;28;20094;-49
2022/03/31 07:38:29;;;;;;;9.55;5.05;;;2.30;98.20;;;;;;5089966;28;20032;-45
2022/03/31 07:40:56;;;;;;;9.23;4.78;;;2.30;98.50;;;;;;5089872;28;20054;-46
2022/03/31 07:43:24;;;;;;;11.23;4.30;;;2.30;98.00;;;;;;5089958;28;20127;-54
2022/03/31 07:45:51;;;;;;;8.77;4.28;;;2.30;97.80;;;;;;5088528;28;20044;-55
2022/03/31 07:48:18;;;;;;;9.27;4.78;;;2.40;97.80;;;;;;5089830;28;20040;-53
2022/03/31 07:50:48;;;;;;;8.20;4.60;;;2.50;97.70;;;;;;5088415;28;20055;-50
2022/03/31 07:53:22;;;;;;;8.63;4.97;;;2.50;97.90;;;;;;5088886;28;20032;-51
2022/03/31 07:55:49;;;;;;;7.78;4.50;;;2.70;97.70;;;;;;5089505;28;20032;-53
2022/03/31 07:58:16;;;;;;;9.60;4.60;;;2.70;97.60;;;;;;5089633;28;20044;-50
2022/03/31 08:00:52;;;;;;;7.70;4.53;;;2.70;97.40;;;;;;5082347;28;20075;-50
2022/03/31 08:03:19;;;;;;;7.53;4.50;;;2.70;97.50;;;;;;5089624;28;20122;-53
2022/03/31 08:05:46;;;;;;;7.32;4.63;;;2.80;97.50;;;;;;5089450;28;20126;-52
2022/03/31 08:08:12;;;;;;;6.55;4.30;;;2.80;97.40;;;;;;5089728;28;20040;-50
2022/03/31 08:10:40;;;;;;;7.55;4.82;;;2.70;97.20;;;;;;5089409;28;20044;-55
2022/03/31 08:13:08;;;;;;;9.48;5.38;;;2.80;97.60;;;;;;5089363;28;20121;-50
2022/03/31 08:15:35;;;;;;;9.20;5.72;;;2.90;97.40;;;;;;5091157;28;20059;-53
2022/03/31 08:18:02;;;;;;;7.45;5.18;;;3.00;97.20;;;;;;5089287;28;20451;-53
2022/03/31 08:20:29;;;;;;;7.28;5.13;;;3.10;97.10;;;;;;5088810;28;20048;-52
2022/03/31 08:22:55;;;;;;;7.45;5.60;;;3.10;96.80;;;;;;5089312;28;20106;-52
2022/03/31 08:25:22;;;;;;;9.70;5.72;;;3.10;96.90;;;;;;5089200;28;20090;-51
2022/03/31 08:27:49;;;;;;;8.32;5.82;;;3.10;97.00;;;;;;5087918;28;20116;-52
2022/03/31 08:30:19;;;;;;;8.38;6.22;;;3.20;96.80;;;;;;5082806;28;20466;-54
2022/03/31 08:32:46;;;;;;;9.57;5.60;;;3.30;97.30;;;;;;5075273;28;20040;-53
2022/03/31 08:35:13;;;;;;;7.88;5.85;;;3.30;96.60;;;;;;5075635;28;20040;-52
2022/03/31 08:37:40;;;;;;;12.27;5.95;;;3.40;96.70;;;;;;5075538;28;20483;-53
2022/03/31 08:40:07;;;;;;;9.48;5.85;;;3.40;96.30;;;;;;5075127;28;20116;-52
2022/03/31 08:42:33;;;;;;;6.60;4.97;;;3.40;96.70;;;;;;5075444;28;20044;-51
2022/03/31 08:45:00;;;;;;;5.78;3.78;;;3.40;96.70;;;;;;5074279;28;20060;-48
2022/03/31 08:47:27;;;;;;;8.82;5.43;;;3.40;96.20;;;;;;5068912;28;20044;-51
2022/03/31 08:50:14;;;;;;;8.25;4.28;;;3.40;96.70;;;;;;5071265;28;20040;-51
2022/03/31 08:52:41;;;;;;;4.72;3.63;;;3.50;96.40;;;;;;5080924;28;20101;-48
2022/03/31 08:55:08;;;;;;;6.75;3.20;;;3.50;96.20;;;;;;5075245;28;20103;-50
2022/03/31 08:57:35;;;;;;;8.35;3.60;;;3.50;95.90;;;;;;5074339;28;20480;-51
2022/03/31 09:00:02;;;;;;;8.20;4.68;;;3.50;96.00;;;;;;5074870;28;20045;-51
2022/03/31 09:02:31;;;;;;;5.82;3.45;;;3.50;96.10;;;;;;5074906;28;20079;-54
2022/03/31 09:04:58;;;;;;;5.60;2.72;;;3.60;96.00;;;;;;5074672;28;20045;-51
2022/03/31 09:07:25;;;;;;;7.13;3.47;;;3.60;95.70;;;;;;5074823;28;20086;-51
2022/03/31 09:09:52;;;;;;;4.20;1.73;;;3.60;96.00;;;;;;5074075;28;20044;-53
2022/03/31 09:12:19;;;;;;;2.53;1.77;;;3.50;95.80;;;;;;5074975;28;20385;-51
2022/03/31 09:14:50;;;;;;;6.85;1.88;;;3.60;95.90;;;;;;5074806;28;20040;-54
2022/03/31 09:17:17;;;;;;;3.65;1.60;;;3.60;95.90;;;;;;5074893;28;20093;-51
2022/03/31 09:19:44;;;;;;;4.05;1.50;;;3.70;95.30;;;;;;5072728;28;20506;-55
2022/03/31 09:22:10;;;;;;;2.85;1.27;;;3.70;95.40;;;;;;5075895;28;20169;-55
2022/03/31 09:24:37;;;;;;;2.28;1.08;;;3.80;95.50;;;;;;5078965;28;20041;-49
2022/03/31 09:27:04;;;;;;;1.60;0.95;;;3.90;94.20;;;;;;5074624;28;20043;-57
2022/03/31 09:29:31;;;;;;;5.70;1.10;;;4.00;94.50;;;;;;5074349;28;20040;-49
2022/03/31 09:31:58;;;;;;;2.33;0.95;;;4.10;94.50;;;;;;5074458;28;20116;-52
2022/03/31 09:34:25;;;;;;;2.20;0.88;;;4.10;94.30;;;;;;5074317;28;20043;-51
2022/03/31 09:36:51;;;;;;;3.38;1.33;;;4.10;94.20;;;;;;5074659;28;20430;-48
2022/03/31 09:39:18;;;;;;;5.22;1.27;;;4.10;94.70;;;;;;5072342;28;20044;-54
2022/03/31 09:41:50;;;;;;;4.93;1.30;;;4.20;93.80;;;;;;5074052;28;20537;-52
2022/03/31 09:44:17;;;;;;;3.78;1.40;;;4.20;93.70;;;;;;5073289;28;20133;-55
2022/03/31 09:46:44;;;;;;;4.85;1.38;;;4.20;93.20;;;;;;5072841;28;20090;-51
2022/03/31 09:49:11;;;;;;;3.25;1.08;;;4.30;93.30;;;;;;5074281;28;20526;-52
2022/03/31 09:51:38;;;;;;;4.15;1.30;;;4.30;92.90;;;;;;5074203;28;20450;-45
2022/03/31 09:54:05;;;;;;;5.22;1.35;;;4.30;92.80;;;;;;5075571;28;20507;-54
2022/03/31 09:56:34;;;;;;;10.07;1.60;;;4.40;92.40;;;;;;5074054;28;20041;-45
2022/03/31 09:59:01;;;;;;;11.10;2.40;;;4.40;92.40;;;;;;5073921;28;20052;-53
2022/03/31 10:01:28;;;;;;;9.02;2.17;;;4.40;93.00;;;;;;5073674;28;20506;-53
2022/03/31 10:03:56;;;;;;;9.23;2.13;;;4.10;94.00;;;;;;5073862;28;20102;-49
2022/03/31 10:06:24;;;;;;;8.55;1.45;;;3.70;95.40;;;;;;5072578;28;20052;-53
2022/03/31 10:08:50;;;;;;;9.05;1.73;;;3.50;96.00;;;;;;5072499;28;20049;-56
2022/03/31 10:11:17;;;;;;;6.97;1.52;;;3.50;96.50;;;;;;5070378;28;20049;-52
2022/03/31 10:13:44;;;;;;;8.57;1.65;;;3.50;96.30;;;;;;5070996;28;20055;-50
2022/03/31 10:16:13;;;;;;;5.18;1.73;;;3.60;96.50;;;;;;5073606;28;20076;-53
2022/03/31 10:18:41;;;;;;;8.95;2.22;;;3.70;96.20;;;;;;5073295;28;20059;-46
2022/03/31 10:21:08;;;;;;;9.00;1.80;;;3.80;95.80;;;;;;5072665;28;20048;-53
2022/03/31 10:26:21;;;;;;;11.90;2.47;;;3.90;95.10;;;;;;5072221;28;20478;-52
2022/03/31 10:28:47;;;;;;;7.68;2.00;;;4.00;94.80;;;;;;5073397;28;20071;-53
2022/03/31 10:31:19;;;;;;;8.93;2.53;;;4.10;94.70;;;;;;5072078;28;20044;-53
2022/03/31 10:33:46;;;;;;;10.77;2.17;;;4.20;93.50;;;;;;5071479;28;20090;-54
2022/03/31 10:36:13;;;;;;;10.77;2.40;;;4.40;93.80;;;;;;5071972;28;20479;-49
2022/03/31 10:38:40;;;;;;;11.00;1.75;;;4.50;92.20;;;;;;5073065;28;20254;-51
2022/03/31 10:41:08;;;;;;;8.32;2.60;;;4.50;90.90;;;;;;5072473;28;20124;-50
2022/03/31 10:43:35;;;;;;;8.15;2.17;;;4.60;91.80;;;;;;5073207;28;20480;-50
2022/03/31 10:46:04;;;;;;;8.18;2.03;;;4.70;91.70;;;;;;5073155;28;20051;-52
2022/03/31 10:48:34;;;;;;;5.82;1.52;;;4.90;90.50;;;;;;5073011;28;20047;-51
2022/03/31 10:51:01;;;;;;;10.63;2.03;;;4.90;88.70;;;;;;5071414;28;20463;-50
2022/03/31 10:53:28;;;;;;;10.90;2.30;;;5.00;88.10;;;;;;5078290;28;20039;-50
2022/03/31 10:55:55;;;;;;;10.00;1.65;;;5.10;89.10;;;;;;5072923;28;20488;-51
2022/03/31 10:58:31;;;;;;;8.88;2.13;;;5.10;88.10;;;;;;5073215;28;20044;-54
2022/03/31 11:00:57;;;;;;;10.98;2.00;;;5.10;88.50;;;;;;5072722;28;20495;-50
2022/03/31 11:03:24;;;;;;;9.07;1.77;;;5.20;87.90;;;;;;5072558;28;20475;-56
2022/03/31 11:05:52;;;;;;;12.60;2.45;;;5.20;87.80;;;;;;5084318;28;20045;-50
2022/03/31 11:08:18;;;;;;;12.85;2.38;;;5.30;84.60;;;;;;5071542;28;20048;-53
2022/03/31 11:10:45;;;;;;;7.15;1.70;;;5.40;81.80;;;;;;5071232;28;20075;-53
